Crest Hill, Illinois
Current Conditions -  °F | °C
As of 6:15 PM on Thursday 27 Nov 2014 (Local Time) from KJOT Reporting Station
Scattered Clouds Scattered Clouds  
Wind Chill: 20°   Ceiling: Unl
Heat Index: 20°   Visibility: 10mi
Dew Point: 14°   Wind: 0mph
Humidity: 77%   Direction: NA
Pressure: 30.42"   Gusts: NA
Location:  41.55°N, 88.12°W
Report Text: KJOT 280015Z AUTO 00000KT 10SM SCT040 M07/M10 A3042 RMK AO2 T10661100
Loading
Personal Weather Stations






























Interactive Weather Map New forecast layout! Learn more

10-Day Weather Forecast

Advertisements
Track Severe Weather on mobile